Madera, Pennsylvania
Current Conditions -  °F | °C
As of 3:54 PM on Sunday 23 Nov 2014 (Local Time) from KFIG Reporting Station
Clear Clear  
Wind Chill: 55°   Ceiling: Unl
Heat Index: 55°   Visibility: 10mi
Dew Point: 34°   Wind: 5mph
Humidity: 45%   Direction: NA
Pressure: 29.97"   Gusts: NA
Location:  40.83°N, 78.43°W
Report Text: KFIG 232054Z AUTO VRB04KT 10SM CLR 13/01 A2997 RMK AO2 SLP155 T01280011 56017
Loading
Personal Weather Stations






























Interactive Weather Map New forecast layout! Learn more

10-Day Weather Forecast

Advertisements
Track Severe Weather on mobile